sensor_id;sensor_type;location;lat;lon;timestamp;P1;durP1;ratioP1;P2;durP2;ratioP2
29938;SDS011;16799;50.844;5.304;2023-06-14T00:01:43;15.10;;;7.63;;
29938;SDS011;16799;50.844;5.304;2023-06-14T00:04:11;8.70;;;8.00;;
29938;SDS011;16799;50.844;5.304;2023-06-14T00:06:37;7.97;;;7.27;;
29938;SDS011;16799;50.844;5.304;2023-06-14T00:09:03;13.20;;;8.80;;
29938;SDS011;16799;50.844;5.304;2023-06-14T00:11:30;9.17;;;8.30;;
29938;SDS011;16799;50.844;5.304;2023-06-14T00:13:56;9.00;;;8.20;;
29938;SDS011;16799;50.844;5.304;2023-06-14T00:16:22;24.70;;;9.03;;
29938;SDS011;16799;50.844;5.304;2023-06-14T00:18:48;8.10;;;7.40;;
29938;SDS011;16799;50.844;5.304;2023-06-14T00:21:13;10.27;;;8.53;;
29938;SDS011;16799;50.844;5.304;2023-06-14T00:23:39;8.33;;;7.70;;
29938;SDS011;16799;50.844;5.304;2023-06-14T00:26:05;8.87;;;8.00;;
29938;SDS011;16799;50.844;5.304;2023-06-14T00:28:31;9.37;;;8.53;;
29938;SDS011;16799;50.844;5.304;2023-06-14T00:30:56;10.27;;;9.17;;
29938;SDS011;16799;50.844;5.304;2023-06-14T00:33:22;8.60;;;7.80;;
29938;SDS011;16799;50.844;5.304;2023-06-14T00:35:48;8.07;;;7.37;;
29938;SDS011;16799;50.844;5.304;2023-06-14T00:38:13;9.30;;;8.50;;
29938;SDS011;16799;50.844;5.304;2023-06-14T00:40:39;9.97;;;8.93;;
29938;SDS011;16799;50.844;5.304;2023-06-14T00:43:04;8.03;;;7.43;;
29938;SDS011;16799;50.844;5.304;2023-06-14T00:45:31;8.80;;;8.07;;
29938;SDS011;16799;50.844;5.304;2023-06-14T00:48:00;9.57;;;8.67;;
29938;SDS011;16799;50.844;5.304;2023-06-14T00:50:27;9.67;;;8.80;;
29938;SDS011;16799;50.844;5.304;2023-06-14T00:52:54;8.40;;;7.80;;
29938;SDS011;16799;50.844;5.304;2023-06-14T00:55:21;10.40;;;9.53;;
29938;SDS011;16799;50.844;5.304;2023-06-14T00:57:47;9.73;;;8.93;;
29938;SDS011;16799;50.844;5.304;2023-06-14T01:00:14;9.37;;;8.20;;
29938;SDS011;16799;50.844;5.304;2023-06-14T01:02:40;13.13;;;10.07;;
29938;SDS011;16799;50.844;5.304;2023-06-14T01:05:06;10.93;;;8.93;;
29938;SDS011;16799;50.844;5.304;2023-06-14T01:13:36;15.10;;;8.53;;
29938;SDS011;16799;50.844;5.304;2023-06-14T01:16:05;10.83;;;8.77;;
29938;SDS011;16799;50.844;5.304;2023-06-14T01:18:32;9.60;;;8.80;;
29938;SDS011;16799;50.844;5.304;2023-06-14T01:20:59;10.23;;;9.30;;
29938;SDS011;16799;50.844;5.304;2023-06-14T01:23:27;9.53;;;8.47;;
29938;SDS011;16799;50.844;5.304;2023-06-14T01:25:57;9.03;;;8.40;;
29938;SDS011;16799;50.844;5.304;2023-06-14T01:28:23;9.23;;;8.30;;
29938;SDS011;16799;50.844;5.304;2023-06-14T01:30:52;10.10;;;9.23;;
29938;SDS011;16799;50.844;5.304;2023-06-14T01:33:23;11.37;;;8.60;;
29938;SDS011;16799;50.844;5.304;2023-06-14T01:35:51;11.93;;;7.37;;
29938;SDS011;16799;50.844;5.304;2023-06-14T01:38:19;16.67;;;10.10;;
29938;SDS011;16799;50.844;5.304;2023-06-14T01:40:47;9.10;;;8.30;;
29938;SDS011;16799;50.844;5.304;2023-06-14T01:43:16;10.43;;;9.40;;
29938;SDS011;16799;50.844;5.304;2023-06-14T01:45:42;10.20;;;9.30;;
29938;SDS011;16799;50.844;5.304;2023-06-14T01:48:09;11.27;;;9.60;;
29938;SDS011;16799;50.844;5.304;2023-06-14T01:50:35;11.20;;;8.87;;
29938;SDS011;16799;50.844;5.304;2023-06-14T01:53:01;10.93;;;9.00;;
29938;SDS011;16799;50.844;5.304;2023-06-14T01:55:26;11.30;;;8.33;;
29938;SDS011;16799;50.844;5.304;2023-06-14T01:57:52;10.23;;;8.87;;
29938;SDS011;16799;50.844;5.304;2023-06-14T02:00:19;12.90;;;9.10;;
29938;SDS011;16799;50.844;5.304;2023-06-14T02:02:46;13.63;;;8.90;;
29938;SDS011;16799;50.844;5.304;2023-06-14T02:05:12;14.43;;;8.50;;
29938;SDS011;16799;50.844;5.304;2023-06-14T02:07:38;9.13;;;8.33;;
29938;SDS011;16799;50.844;5.304;2023-06-14T02:10:04;9.43;;;8.63;;
29938;SDS011;16799;50.844;5.304;2023-06-14T02:12:30;8.80;;;8.10;;
29938;SDS011;16799;50.844;5.304;2023-06-14T02:14:55;11.93;;;9.50;;
29938;SDS011;16799;50.844;5.304;2023-06-14T02:17:21;8.00;;;7.40;;
29938;SDS011;16799;50.844;5.304;2023-06-14T02:19:48;10.10;;;9.20;;
29938;SDS011;16799;50.844;5.304;2023-06-14T02:22:14;9.03;;;8.13;;
29938;SDS011;16799;50.844;5.304;2023-06-14T02:24:40;9.53;;;8.60;;
29938;SDS011;16799;50.844;5.304;2023-06-14T02:27:07;10.03;;;8.97;;
29938;SDS011;16799;50.844;5.304;2023-06-14T02:29:35;10.93;;;9.70;;
29938;SDS011;16799;50.844;5.304;2023-06-14T02:32:01;11.87;;;10.10;;
29938;SDS011;16799;50.844;5.304;2023-06-14T02:34:27;11.77;;;9.80;;
29938;SDS011;16799;50.844;5.304;2023-06-14T02:36:53;12.90;;;9.03;;
29938;SDS011;16799;50.844;5.304;2023-06-14T02:39:20;10.17;;;9.07;;
29938;SDS011;16799;50.844;5.304;2023-06-14T02:41:48;11.33;;;10.33;;
29938;SDS011;16799;50.844;5.304;2023-06-14T02:44:14;10.83;;;9.87;;
29938;SDS011;16799;50.844;5.304;2023-06-14T02:46:42;12.13;;;10.17;;
29938;SDS011;16799;50.844;5.304;2023-06-14T02:49:08;12.97;;;10.43;;
29938;SDS011;16799;50.844;5.304;2023-06-14T02:51:35;13.10;;;11.07;;
29938;SDS011;16799;50.844;5.304;2023-06-14T02:54:00;11.10;;;9.57;;
29938;SDS011;16799;50.844;5.304;2023-06-14T02:56:26;13.00;;;10.57;;
29938;SDS011;16799;50.844;5.304;2023-06-14T02:58:52;10.47;;;9.47;;
29938;SDS011;16799;50.844;5.304;2023-06-14T03:01:18;11.23;;;10.23;;
29938;SDS011;16799;50.844;5.304;2023-06-14T03:03:45;9.63;;;8.73;;
29938;SDS011;16799;50.844;5.304;2023-06-14T03:06:11;22.50;;;9.70;;
29938;SDS011;16799;50.844;5.304;2023-06-14T03:08:39;10.53;;;9.53;;
29938;SDS011;16799;50.844;5.304;2023-06-14T03:11:06;10.73;;;8.90;;
29938;SDS011;16799;50.844;5.304;2023-06-14T03:13:32;10.10;;;9.20;;
29938;SDS011;16799;50.844;5.304;2023-06-14T03:15:59;12.43;;;10.37;;
29938;SDS011;16799;50.844;5.304;2023-06-14T03:18:27;10.67;;;9.43;;
29938;SDS011;16799;50.844;5.304;2023-06-14T03:20:55;12.43;;;9.93;;
29938;SDS011;16799;50.844;5.304;2023-06-14T03:23:25;12.23;;;11.00;;
29938;SDS011;16799;50.844;5.304;2023-06-14T03:25:51;11.17;;;9.50;;
29938;SDS011;16799;50.844;5.304;2023-06-14T03:28:17;14.90;;;10.03;;
29938;SDS011;16799;50.844;5.304;2023-06-14T03:30:43;16.10;;;10.97;;
29938;SDS011;16799;50.844;5.304;2023-06-14T03:33:09;23.67;;;12.27;;
29938;SDS011;16799;50.844;5.304;2023-06-14T03:35:34;10.80;;;9.70;;
29938;SDS011;16799;50.844;5.304;2023-06-14T03:38:00;15.80;;;10.83;;
29938;SDS011;16799;50.844;5.304;2023-06-14T03:40:27;15.63;;;11.70;;
29938;SDS011;16799;50.844;5.304;2023-06-14T03:42:53;15.93;;;12.33;;
29938;SDS011;16799;50.844;5.304;2023-06-14T03:45:20;11.03;;;10.03;;
29938;SDS011;16799;50.844;5.304;2023-06-14T03:47:46;14.43;;;10.57;;
29938;SDS011;16799;50.844;5.304;2023-06-14T03:50:12;13.30;;;11.87;;
29938;SDS011;16799;50.844;5.304;2023-06-14T03:52:38;12.67;;;10.37;;
29938;SDS011;16799;50.844;5.304;2023-06-14T03:55:03;10.93;;;9.83;;
29938;SDS011;16799;50.844;5.304;2023-06-14T03:57:30;11.50;;;10.63;;
29938;SDS011;16799;50.844;5.304;2023-06-14T03:59:55;12.33;;;10.33;;
29938;SDS011;16799;50.844;5.304;2023-06-14T04:02:21;16.37;;;11.30;;
29938;SDS011;16799;50.844;5.304;2023-06-14T04:04:47;14.30;;;10.43;;
29938;SDS011;16799;50.844;5.304;2023-06-14T04:07:13;10.97;;;9.90;;
29938;SDS011;16799;50.844;5.304;2023-06-14T04:09:40;11.90;;;10.70;;
29938;SDS011;16799;50.844;5.304;2023-06-14T04:12:06;17.50;;;13.20;;
29938;SDS011;16799;50.844;5.304;2023-06-14T04:14:34;16.77;;;10.90;;
29938;SDS011;16799;50.844;5.304;2023-06-14T04:17:00;13.53;;;10.90;;
29938;SDS011;16799;50.844;5.304;2023-06-14T04:19:26;16.03;;;11.20;;
29938;SDS011;16799;50.844;5.304;2023-06-14T04:21:51;19.57;;;10.17;;
29938;SDS011;16799;50.844;5.304;2023-06-14T04:24:17;19.83;;;12.43;;
29938;SDS011;16799;50.844;5.304;2023-06-14T04:26:44;13.67;;;10.47;;
29938;SDS011;16799;50.844;5.304;2023-06-14T04:29:10;18.40;;;12.03;;
29938;SDS011;16799;50.844;5.304;2023-06-14T04:31:41;12.93;;;11.73;;
29938;SDS011;16799;50.844;5.304;2023-06-14T04:34:07;12.17;;;11.07;;
29938;SDS011;16799;50.844;5.304;2023-06-14T04:36:33;18.03;;;13.37;;
29938;SDS011;16799;50.844;5.304;2023-06-14T04:39:00;17.50;;;13.50;;
29938;SDS011;16799;50.844;5.304;2023-06-14T04:41:29;13.47;;;12.10;;
29938;SDS011;16799;50.844;5.304;2023-06-14T04:43:55;12.13;;;10.60;;
29938;SDS011;16799;50.844;5.304;2023-06-14T04:46:23;15.43;;;12.43;;
29938;SDS011;16799;50.844;5.304;2023-06-14T04:48:49;16.93;;;13.20;;
29938;SDS011;16799;50.844;5.304;2023-06-14T04:51:15;20.70;;;14.10;;
29938;SDS011;16799;50.844;5.304;2023-06-14T04:53:41;14.90;;;12.27;;
29938;SDS011;16799;50.844;5.304;2023-06-14T04:56:08;15.60;;;13.57;;
29938;SDS011;16799;50.844;5.304;2023-06-14T04:58:35;15.47;;;13.90;;
29938;SDS011;16799;50.844;5.304;2023-06-14T05:01:00;18.33;;;13.20;;
29938;SDS011;16799;50.844;5.304;2023-06-14T05:03:27;24.50;;;15.30;;
29938;SDS011;16799;50.844;5.304;2023-06-14T05:05:55;18.60;;;14.63;;
29938;SDS011;16799;50.844;5.304;2023-06-14T05:08:21;17.33;;;12.63;;
29938;SDS011;16799;50.844;5.304;2023-06-14T05:10:50;16.13;;;14.33;;
29938;SDS011;16799;50.844;5.304;2023-06-14T05:13:16;18.57;;;13.90;;
29938;SDS011;16799;50.844;5.304;2023-06-14T05:15:42;19.33;;;14.60;;
29938;SDS011;16799;50.844;5.304;2023-06-14T05:18:08;22.00;;;15.80;;
29938;SDS011;16799;50.844;5.304;2023-06-14T05:20:34;28.90;;;16.60;;
29938;SDS011;16799;50.844;5.304;2023-06-14T05:23:02;22.53;;;13.83;;
29938;SDS011;16799;50.844;5.304;2023-06-14T05:25:27;17.60;;;13.43;;
29938;SDS011;16799;50.844;5.304;2023-06-14T05:27:53;40.07;;;14.40;;
29938;SDS011;16799;50.844;5.304;2023-06-14T05:30:19;18.07;;;12.87;;
29938;SDS011;16799;50.844;5.304;2023-06-14T05:32:45;17.10;;;12.27;;
29938;SDS011;16799;50.844;5.304;2023-06-14T05:35:11;16.33;;;12.20;;
29938;SDS011;16799;50.844;5.304;2023-06-14T05:37:36;14.43;;;12.93;;
29938;SDS011;16799;50.844;5.304;2023-06-14T05:40:02;17.50;;;11.33;;
29938;SDS011;16799;50.844;5.304;2023-06-14T05:42:30;17.93;;;12.20;;
29938;SDS011;16799;50.844;5.304;2023-06-14T05:44:56;23.13;;;11.70;;
29938;SDS011;16799;50.844;5.304;2023-06-14T05:47:22;12.73;;;11.53;;
29938;SDS011;16799;50.844;5.304;2023-06-14T05:49:47;19.93;;;11.70;;
29938;SDS011;16799;50.844;5.304;2023-06-14T05:52:13;18.80;;;10.40;;
29938;SDS011;16799;50.844;5.304;2023-06-14T05:54:39;10.33;;;9.20;;
29938;SDS011;16799;50.844;5.304;2023-06-14T05:57:06;15.57;;;10.27;;
29938;SDS011;16799;50.844;5.304;2023-06-14T05:59:32;15.20;;;10.30;;
29938;SDS011;16799;50.844;5.304;2023-06-14T06:01:58;15.53;;;11.57;;
29938;SDS011;16799;50.844;5.304;2023-06-14T06:04:23;10.10;;;9.10;;
29938;SDS011;16799;50.844;5.304;2023-06-14T06:06:49;17.07;;;11.13;;
29938;SDS011;16799;50.844;5.304;2023-06-14T06:09:15;11.23;;;9.90;;
29938;SDS011;16799;50.844;5.304;2023-06-14T06:11:40;13.93;;;10.33;;
29938;SDS011;16799;50.844;5.304;2023-06-14T06:14:06;15.43;;;10.80;;
29938;SDS011;16799;50.844;5.304;2023-06-14T06:16:32;10.47;;;9.57;;
29938;SDS011;16799;50.844;5.304;2023-06-14T06:18:58;12.03;;;9.90;;
29938;SDS011;16799;50.844;5.304;2023-06-14T06:21:24;13.23;;;9.87;;
29938;SDS011;16799;50.844;5.304;2023-06-14T06:23:50;9.57;;;8.57;;
29938;SDS011;16799;50.844;5.304;2023-06-14T06:26:15;13.50;;;9.67;;
29938;SDS011;16799;50.844;5.304;2023-06-14T06:28:41;14.33;;;9.80;;
29938;SDS011;16799;50.844;5.304;2023-06-14T06:31:07;17.17;;;9.70;;
29938;SDS011;16799;50.844;5.304;2023-06-14T06:33:32;17.77;;;9.80;;
29938;SDS011;16799;50.844;5.304;2023-06-14T06:35:58;17.63;;;9.27;;
29938;SDS011;16799;50.844;5.304;2023-06-14T06:38:24;14.13;;;9.70;;
29938;SDS011;16799;50.844;5.304;2023-06-14T06:40:50;10.47;;;8.87;;
29938;SDS011;16799;50.844;5.304;2023-06-14T06:43:15;10.03;;;9.10;;
29938;SDS011;16799;50.844;5.304;2023-06-14T06:45:42;12.27;;;8.87;;
29938;SDS011;16799;50.844;5.304;2023-06-14T06:48:08;15.53;;;8.20;;
29938;SDS011;16799;50.844;5.304;2023-06-14T06:50:37;16.57;;;9.63;;
29938;SDS011;16799;50.844;5.304;2023-06-14T06:53:03;10.23;;;8.47;;
29938;SDS011;16799;50.844;5.304;2023-06-14T06:55:29;9.20;;;8.40;;
29938;SDS011;16799;50.844;5.304;2023-06-14T06:57:55;17.00;;;8.70;;
29938;SDS011;16799;50.844;5.304;2023-06-14T07:00:21;16.17;;;8.83;;
29938;SDS011;16799;50.844;5.304;2023-06-14T07:02:47;16.70;;;7.80;;
29938;SDS011;16799;50.844;5.304;2023-06-14T07:05:12;7.47;;;6.70;;
29938;SDS011;16799;50.844;5.304;2023-06-14T07:07:38;8.37;;;7.57;;
29938;SDS011;16799;50.844;5.304;2023-06-14T07:10:04;15.60;;;7.90;;
29938;SDS011;16799;50.844;5.304;2023-06-14T07:12:31;8.70;;;6.90;;
29938;SDS011;16799;50.844;5.304;2023-06-14T07:14:58;8.27;;;7.67;;
29938;SDS011;16799;50.844;5.304;2023-06-14T07:17:25;7.77;;;7.27;;
29938;SDS011;16799;50.844;5.304;2023-06-14T07:19:51;9.77;;;8.77;;
29938;SDS011;16799;50.844;5.304;2023-06-14T07:22:16;7.63;;;6.93;;
29938;SDS011;16799;50.844;5.304;2023-06-14T07:24:42;15.57;;;7.40;;
29938;SDS011;16799;50.844;5.304;2023-06-14T07:27:08;12.30;;;8.03;;
29938;SDS011;16799;50.844;5.304;2023-06-14T07:29:34;7.67;;;6.97;;
29938;SDS011;16799;50.844;5.304;2023-06-14T07:32:00;14.60;;;8.40;;
29938;SDS011;16799;50.844;5.304;2023-06-14T07:34:25;18.80;;;7.13;;
29938;SDS011;16799;50.844;5.304;2023-06-14T07:36:52;8.73;;;7.53;;
29938;SDS011;16799;50.844;5.304;2023-06-14T07:39:19;10.97;;;7.90;;
29938;SDS011;16799;50.844;5.304;2023-06-14T07:41:44;7.03;;;6.40;;
29938;SDS011;16799;50.844;5.304;2023-06-14T07:44:10;12.90;;;7.70;;
29938;SDS011;16799;50.844;5.304;2023-06-14T07:46:37;8.43;;;7.03;;
29938;SDS011;16799;50.844;5.304;2023-06-14T07:49:03;7.67;;;7.07;;
29938;SDS011;16799;50.844;5.304;2023-06-14T07:51:28;10.40;;;7.73;;
29938;SDS011;16799;50.844;5.304;2023-06-14T07:53:54;7.60;;;6.87;;
29938;SDS011;16799;50.844;5.304;2023-06-14T07:56:20;12.63;;;7.77;;
29938;SDS011;16799;50.844;5.304;2023-06-14T07:58:46;6.90;;;6.40;;
29938;SDS011;16799;50.844;5.304;2023-06-14T08:01:12;9.73;;;6.17;;
29938;SDS011;16799;50.844;5.304;2023-06-14T08:03:37;9.47;;;7.07;;
29938;SDS011;16799;50.844;5.304;2023-06-14T08:06:03;8.80;;;7.10;;
29938;SDS011;16799;50.844;5.304;2023-06-14T08:08:29;10.37;;;7.00;;
29938;SDS011;16799;50.844;5.304;2023-06-14T08:10:55;7.83;;;6.43;;
29938;SDS011;16799;50.844;5.304;2023-06-14T08:13:21;10.20;;;7.07;;
29938;SDS011;16799;50.844;5.304;2023-06-14T08:15:47;7.03;;;6.40;;
29938;SDS011;16799;50.844;5.304;2023-06-14T08:18:12;11.53;;;7.53;;
29938;SDS011;16799;50.844;5.304;2023-06-14T08:20:38;7.73;;;6.93;;
29938;SDS011;16799;50.844;5.304;2023-06-14T08:23:05;6.97;;;6.03;;
29938;SDS011;16799;50.844;5.304;2023-06-14T08:25:31;9.30;;;6.23;;
29938;SDS011;16799;50.844;5.304;2023-06-14T08:27:56;8.90;;;5.60;;
29938;SDS011;16799;50.844;5.304;2023-06-14T08:30:23;10.23;;;7.20;;
29938;SDS011;16799;50.844;5.304;2023-06-14T08:32:49;16.80;;;5.93;;
29938;SDS011;16799;50.844;5.304;2023-06-14T08:35:16;7.30;;;6.20;;
29938;SDS011;16799;50.844;5.304;2023-06-14T08:37:43;7.23;;;6.50;;
29938;SDS011;16799;50.844;5.304;2023-06-14T08:40:13;10.80;;;7.43;;
29938;SDS011;16799;50.844;5.304;2023-06-14T08:42:42;12.47;;;7.10;;
29938;SDS011;16799;50.844;5.304;2023-06-14T08:45:09;10.83;;;5.90;;
29938;SDS011;16799;50.844;5.304;2023-06-14T08:47:35;8.23;;;5.37;;
29938;SDS011;16799;50.844;5.304;2023-06-14T08:50:02;8.43;;;6.17;;
29938;SDS011;16799;50.844;5.304;2023-06-14T08:52:29;10.20;;;5.53;;
29938;SDS011;16799;50.844;5.304;2023-06-14T08:54:59;7.10;;;5.83;;
29938;SDS011;16799;50.844;5.304;2023-06-14T08:57:25;11.73;;;5.90;;
29938;SDS011;16799;50.844;5.304;2023-06-14T08:59:55;7.30;;;5.07;;
29938;SDS011;16799;50.844;5.304;2023-06-14T09:02:22;8.47;;;6.30;;
29938;SDS011;16799;50.844;5.304;2023-06-14T09:04:47;9.60;;;6.07;;
29938;SDS011;16799;50.844;5.304;2023-06-14T09:07:14;26.80;;;6.23;;
29938;SDS011;16799;50.844;5.304;2023-06-14T09:09:40;6.73;;;4.63;;
29938;SDS011;16799;50.844;5.304;2023-06-14T09:12:10;6.77;;;5.40;;
29938;SDS011;16799;50.844;5.304;2023-06-14T09:14:37;12.83;;;5.20;;
29938;SDS011;16799;50.844;5.304;2023-06-14T09:17:05;8.67;;;6.37;;
29938;SDS011;16799;50.844;5.304;2023-06-14T09:19:31;12.63;;;5.83;;
29938;SDS011;16799;50.844;5.304;2023-06-14T09:21:56;4.93;;;4.53;;
29938;SDS011;16799;50.844;5.304;2023-06-14T09:24:23;4.10;;;3.80;;
29938;SDS011;16799;50.844;5.304;2023-06-14T09:26:50;11.90;;;5.17;;
29938;SDS011;16799;50.844;5.304;2023-06-14T09:29:16;9.73;;;4.40;;
29938;SDS011;16799;50.844;5.304;2023-06-14T09:31:45;12.33;;;5.20;;
29938;SDS011;16799;50.844;5.304;2023-06-14T09:34:12;4.40;;;4.00;;
29938;SDS011;16799;50.844;5.304;2023-06-14T09:36:37;17.07;;;4.10;;
29938;SDS011;16799;50.844;5.304;2023-06-14T09:39:05;9.27;;;5.30;;
29938;SDS011;16799;50.844;5.304;2023-06-14T09:41:35;6.70;;;4.60;;
29938;SDS011;16799;50.844;5.304;2023-06-14T09:44:03;7.60;;;4.57;;
29938;SDS011;16799;50.844;5.304;2023-06-14T09:46:30;8.00;;;4.37;;
29938;SDS011;16799;50.844;5.304;2023-06-14T09:48:56;9.13;;;3.57;;
29938;SDS011;16799;50.844;5.304;2023-06-14T09:51:26;4.63;;;4.33;;
29938;SDS011;16799;50.844;5.304;2023-06-14T09:53:53;5.93;;;4.10;;
29938;SDS011;16799;50.844;5.304;2023-06-14T09:56:31;4.33;;;3.93;;
29938;SDS011;16799;50.844;5.304;2023-06-14T09:58:59;7.23;;;4.30;;
29938;SDS011;16799;50.844;5.304;2023-06-14T10:01:29;7.47;;;3.97;;
29938;SDS011;16799;50.844;5.304;2023-06-14T10:04:03;4.27;;;3.97;;
29938;SDS011;16799;50.844;5.304;2023-06-14T10:06:30;7.30;;;4.10;;
29938;SDS011;16799;50.844;5.304;2023-06-14T10:08:57;4.67;;;4.00;;
29938;SDS011;16799;50.844;5.304;2023-06-14T10:11:27;9.50;;;3.27;;
29938;SDS011;16799;50.844;5.304;2023-06-14T10:13:54;9.70;;;4.10;;
29938;SDS011;16799;50.844;5.304;2023-06-14T10:16:28;3.40;;;3.17;;
29938;SDS011;16799;50.844;5.304;2023-06-14T10:24:28;3.07;;;2.77;;
29938;SDS011;16799;50.844;5.304;2023-06-14T10:26:58;9.70;;;3.93;;
29938;SDS011;16799;50.844;5.304;2023-06-14T10:29:26;5.57;;;3.43;;
29938;SDS011;16799;50.844;5.304;2023-06-14T10:31:57;4.03;;;3.80;;
29938;SDS011;16799;50.844;5.304;2023-06-14T10:34:27;6.60;;;2.80;;
29938;SDS011;16799;50.844;5.304;2023-06-14T10:37:04;7.50;;;3.60;;
29938;SDS011;16799;50.844;5.304;2023-06-14T10:39:40;4.17;;;3.87;;
29938;SDS011;16799;50.844;5.304;2023-06-14T10:42:13;4.67;;;4.17;;
29938;SDS011;16799;50.844;5.304;2023-06-14T10:44:40;6.13;;;2.90;;
29938;SDS011;16799;50.844;5.304;2023-06-14T10:49:49;3.00;;;2.80;;
29938;SDS011;16799;50.844;5.304;2023-06-14T10:52:26;5.83;;;3.13;;
29938;SDS011;16799;50.844;5.304;2023-06-14T10:57:32;4.90;;;3.00;;
29938;SDS011;16799;50.844;5.304;2023-06-14T10:59:59;3.00;;;2.63;;
29938;SDS011;16799;50.844;5.304;2023-06-14T11:05:25;2.90;;;2.63;;
29938;SDS011;16799;50.844;5.304;2023-06-14T11:07:58;3.50;;;3.20;;
29938;SDS011;16799;50.844;5.304;2023-06-14T11:10:40;7.10;;;2.87;;
29938;SDS011;16799;50.844;5.304;2023-06-14T11:13:08;7.77;;;3.17;;
29938;SDS011;16799;50.844;5.304;2023-06-14T11:15:34;9.33;;;3.87;;
29938;SDS011;16799;50.844;5.304;2023-06-14T11:18:02;3.00;;;2.80;;
29938;SDS011;16799;50.844;5.304;2023-06-14T11:20:33;7.37;;;3.00;;
29938;SDS011;16799;50.844;5.304;2023-06-14T11:23:01;4.10;;;3.70;;
29938;SDS011;16799;50.844;5.304;2023-06-14T11:25:27;3.37;;;3.03;;
29938;SDS011;16799;50.844;5.304;2023-06-14T11:27:53;4.27;;;2.60;;
29938;SDS011;16799;50.844;5.304;2023-06-14T11:30:20;3.70;;;3.40;;
29938;SDS011;16799;50.844;5.304;2023-06-14T11:32:49;3.77;;;3.20;;
29938;SDS011;16799;50.844;5.304;2023-06-14T11:35:17;6.60;;;2.60;;
29938;SDS011;16799;50.844;5.304;2023-06-14T11:37:43;4.60;;;3.40;;
29938;SDS011;16799;50.844;5.304;2023-06-14T11:40:09;2.23;;;2.13;;
29938;SDS011;16799;50.844;5.304;2023-06-14T11:42:37;2.27;;;2.07;;
29938;SDS011;16799;50.844;5.304;2023-06-14T11:45:04;3.20;;;2.60;;
29938;SDS011;16799;50.844;5.304;2023-06-14T11:47:32;4.33;;;2.33;;
29938;SDS011;16799;50.844;5.304;2023-06-14T11:50:03;3.00;;;2.27;;
29938;SDS011;16799;50.844;5.304;2023-06-14T11:52:31;9.93;;;2.20;;
29938;SDS011;16799;50.844;5.304;2023-06-14T11:54:57;2.23;;;2.13;;
29938;SDS011;16799;50.844;5.304;2023-06-14T11:57:23;2.17;;;1.97;;
29938;SDS011;16799;50.844;5.304;2023-06-14T11:59:50;9.37;;;2.10;;
29938;SDS011;16799;50.844;5.304;2023-06-14T12:02:16;1.90;;;1.80;;
29938;SDS011;16799;50.844;5.304;2023-06-14T12:04:49;6.93;;;2.27;;
29938;SDS011;16799;50.844;5.304;2023-06-14T12:07:15;3.77;;;1.63;;
29938;SDS011;16799;50.844;5.304;2023-06-14T12:09:42;1.67;;;1.40;;
29938;SDS011;16799;50.844;5.304;2023-06-14T12:12:34;1.90;;;1.50;;
29938;SDS011;16799;50.844;5.304;2023-06-14T12:15:02;4.93;;;1.30;;
29938;SDS011;16799;50.844;5.304;2023-06-14T12:17:31;1.80;;;1.70;;
29938;SDS011;16799;50.844;5.304;2023-06-14T12:19:58;4.60;;;1.50;;
29938;SDS011;16799;50.844;5.304;2023-06-14T12:22:24;2.60;;;1.57;;
29938;SDS011;16799;50.844;5.304;2023-06-14T12:24:53;1.57;;;1.17;;
29938;SDS011;16799;50.844;5.304;2023-06-14T12:27:18;1.50;;;1.40;;
29938;SDS011;16799;50.844;5.304;2023-06-14T12:29:58;3.03;;;1.53;;
29938;SDS011;16799;50.844;5.304;2023-06-14T12:32:28;2.27;;;2.07;;
29938;SDS011;16799;50.844;5.304;2023-06-14T12:34:54;1.57;;;1.47;;
29938;SDS011;16799;50.844;5.304;2023-06-14T12:37:20;1.50;;;1.40;;
29938;SDS011;16799;50.844;5.304;2023-06-14T12:39:46;4.20;;;2.07;;
29938;SDS011;16799;50.844;5.304;2023-06-14T12:42:19;1.20;;;1.10;;
29938;SDS011;16799;50.844;5.304;2023-06-14T12:44:45;1.10;;;1.00;;
29938;SDS011;16799;50.844;5.304;2023-06-14T12:47:11;2.10;;;1.47;;
29938;SDS011;16799;50.844;5.304;2023-06-14T12:49:38;2.30;;;1.40;;
29938;SDS011;16799;50.844;5.304;2023-06-14T12:52:06;4.20;;;1.73;;
29938;SDS011;16799;50.844;5.304;2023-06-14T12:54:32;1.40;;;1.30;;
29938;SDS011;16799;50.844;5.304;2023-06-14T12:56:58;1.83;;;1.73;;
29938;SDS011;16799;50.844;5.304;2023-06-14T12:59:23;1.10;;;1.00;;
29938;SDS011;16799;50.844;5.304;2023-06-14T13:01:49;1.60;;;1.50;;
29938;SDS011;16799;50.844;5.304;2023-06-14T13:04:15;1.93;;;1.83;;
29938;SDS011;16799;50.844;5.304;2023-06-14T13:06:41;1.80;;;1.70;;
29938;SDS011;16799;50.844;5.304;2023-06-14T13:09:06;6.53;;;1.70;;
29938;SDS011;16799;50.844;5.304;2023-06-14T13:11:33;4.53;;;1.90;;
29938;SDS011;16799;50.844;5.304;2023-06-14T13:13:58;2.90;;;2.07;;
29938;SDS011;16799;50.844;5.304;2023-06-14T13:16:24;3.90;;;2.20;;
29938;SDS011;16799;50.844;5.304;2023-06-14T13:18:50;5.97;;;1.30;;
29938;SDS011;16799;50.844;5.304;2023-06-14T13:21:15;2.50;;;1.47;;
29938;SDS011;16799;50.844;5.304;2023-06-14T13:23:41;1.90;;;1.73;;
29938;SDS011;16799;50.844;5.304;2023-06-14T13:26:07;2.27;;;2.07;;
29938;SDS011;16799;50.844;5.304;2023-06-14T13:28:32;1.43;;;1.30;;
29938;SDS011;16799;50.844;5.304;2023-06-14T13:31:00;5.70;;;1.43;;
29938;SDS011;16799;50.844;5.304;2023-06-14T13:33:26;3.63;;;1.67;;
29938;SDS011;16799;50.844;5.304;2023-06-14T13:35:51;3.40;;;1.40;;
29938;SDS011;16799;50.844;5.304;2023-06-14T13:38:17;1.53;;;1.43;;
29938;SDS011;16799;50.844;5.304;2023-06-14T13:40:43;1.43;;;1.33;;
29938;SDS011;16799;50.844;5.304;2023-06-14T13:43:09;2.43;;;1.37;;
29938;SDS011;16799;50.844;5.304;2023-06-14T13:45:35;2.20;;;1.50;;
29938;SDS011;16799;50.844;5.304;2023-06-14T13:48:01;2.83;;;1.90;;
29938;SDS011;16799;50.844;5.304;2023-06-14T13:50:26;1.73;;;1.07;;
29938;SDS011;16799;50.844;5.304;2023-06-14T13:52:52;1.80;;;1.70;;
29938;SDS011;16799;50.844;5.304;2023-06-14T13:55:18;2.50;;;1.47;;
29938;SDS011;16799;50.844;5.304;2023-06-14T13:57:44;2.20;;;1.37;;
29938;SDS011;16799;50.844;5.304;2023-06-14T14:00:10;8.00;;;1.70;;
29938;SDS011;16799;50.844;5.304;2023-06-14T14:02:37;3.73;;;2.00;;
29938;SDS011;16799;50.844;5.304;2023-06-14T14:05:02;5.57;;;2.03;;
29938;SDS011;16799;50.844;5.304;2023-06-14T14:07:28;2.70;;;1.70;;
29938;SDS011;16799;50.844;5.304;2023-06-14T14:09:54;2.00;;;1.90;;
29938;SDS011;16799;50.844;5.304;2023-06-14T14:12:22;5.13;;;1.70;;
29938;SDS011;16799;50.844;5.304;2023-06-14T14:14:48;5.50;;;2.23;;
29938;SDS011;16799;50.844;5.304;2023-06-14T14:17:15;1.20;;;1.10;;
29938;SDS011;16799;50.844;5.304;2023-06-14T14:19:41;5.50;;;2.03;;
29938;SDS011;16799;50.844;5.304;2023-06-14T14:22:06;3.40;;;2.10;;
29938;SDS011;16799;50.844;5.304;2023-06-14T14:24:32;4.10;;;2.03;;
29938;SDS011;16799;50.844;5.304;2023-06-14T14:26:58;5.00;;;2.33;;
29938;SDS011;16799;50.844;5.304;2023-06-14T14:29:25;2.30;;;2.20;;
29938;SDS011;16799;50.844;5.304;2023-06-14T14:31:54;2.13;;;1.77;;
29938;SDS011;16799;50.844;5.304;2023-06-14T14:34:20;3.37;;;1.93;;
29938;SDS011;16799;50.844;5.304;2023-06-14T14:36:45;2.90;;;1.60;;
29938;SDS011;16799;50.844;5.304;2023-06-14T14:39:11;7.27;;;2.00;;
29938;SDS011;16799;50.844;5.304;2023-06-14T14:41:36;3.77;;;1.87;;
29938;SDS011;16799;50.844;5.304;2023-06-14T14:44:03;1.97;;;1.40;;
29938;SDS011;16799;50.844;5.304;2023-06-14T14:46:29;1.63;;;1.50;;
29938;SDS011;16799;50.844;5.304;2023-06-14T14:48:55;1.93;;;1.57;;
29938;SDS011;16799;50.844;5.304;2023-06-14T14:51:20;6.10;;;1.60;;
29938;SDS011;16799;50.844;5.304;2023-06-14T14:53:46;4.80;;;1.30;;
29938;SDS011;16799;50.844;5.304;2023-06-14T14:56:12;3.37;;;2.10;;